KSLB/SLB METAR and TAF weather

Enter ICAO airport designator
Station Type Date Time Source
KSLB METAR 2021/07/24 20:35 UTC NOAA

KSLB 242035Z AUTO VRB06KT 10SM CLR 30/23 A2998 RMK AO2


Station Type Date Time Source
KSLB Decoded METAR 2021/07/24 20:35 UTC NOAA

Storm Lake, IA, United States (KSLB) 42-36N 095-14W
Jul 24, 2021 - 04:35 PM EDT / 2021.07.24 2035 UTC
Wind: Variable at 7 MPH (6 KT):0
Visibility: 10 mile(s):0
Sky conditions: clear
Temperature: 86 F (30 C)
Heat index: 93.4 F (34.1 C):1
Dew Point: 73 F (23 C)
Relative Humidity: 66%
Pressure (altimeter): 29.98 in. Hg (1015 hPa)
ob: KSLB 242035Z AUTO VRB06KT 10SM CLR 30/23 A2998 RMK AO2
cycle: 20

Station Type Date Time Source
KSLB TAF UTC NOAA

Error!

Example: see airport list